Time;durP1;ratioP1;P1;durP2;ratioP2;P2;SDS_P1;SDS_P2;PMS_P1;PMS_P2;Temp;Humidity;BMP_temperature;BMP_pressure;BME280_temperature;BME280_humidity;BME280_pressure;Samples;Min_cycle;Max_cycle;Signal;HPM_P1;HPM_P2
2022/05/07 00:01:42;;;;;;;;;;;14.60;99.90;;;;;;5029339;28;19937;-77
2022/05/07 00:04:08;;;;;;;;;;;14.60;99.90;;;;;;5028533;28;19972;-78
2022/05/07 00:06:33;;;;;;;;;;;14.70;99.90;;;;;;5028480;28;19913;-78
2022/05/07 00:09:08;;;;;;;;;;;14.80;99.90;;;;;;5029991;28;20387;-78
2022/05/07 00:14:37;;;;;;;;;;;14.70;99.90;;;;;;5020638;28;19914;-79
2022/05/07 00:19:47;;;;;;;;;;;14.70;99.90;;;;;;5030153;28;19920;-76
2022/05/07 00:22:14;;;;;;;;;;;14.60;99.90;;;;;;5026852;28;19913;-77
2022/05/07 00:24:43;;;;;;;;;;;14.60;99.90;;;;;;5037822;28;19935;-77
2022/05/07 00:27:13;;;;;;;;;;;14.60;99.90;;;;;;5034622;28;19913;-76
2022/05/07 00:29:55;;;;;;;;;;;14.60;99.90;;;;;;5032170;28;19925;-77
2022/05/07 00:32:38;;;;;;;;;;;;;;;;;;;;;
2022/05/07 00:35:10;;;;;;;;;;;14.60;99.90;;;;;;5029297;28;19949;-77
2022/05/07 00:37:38;;;;;;;;;;;14.60;99.90;;;;;;5031345;28;19921;-78
2022/05/07 00:40:05;;;;;;;;;;;14.60;99.90;;;;;;5040089;28;19913;-76
2022/05/07 00:42:31;;;;;;;;;;;14.50;99.90;;;;;;5042274;28;19913;-78
2022/05/07 00:45:09;;;;;;;;;;;14.60;99.90;;;;;;5026275;28;19909;-77
2022/05/07 00:47:35;;;;;;;;;;;14.60;99.90;;;;;;5038127;28;19943;-78
2022/05/07 00:52:47;;;;;;;;;;;14.60;99.90;;;;;;5026340;28;19987;-81
2022/05/07 00:55:13;;;;;;;;;;;14.60;99.90;;;;;;5032931;28;20359;-79
2022/05/07 00:57:39;;;;;;;;;;;14.70;99.90;;;;;;5032106;28;19920;-78
2022/05/07 01:00:11;;;;;;;;;;;14.70;99.90;;;;;;5027052;28;19956;-78
2022/05/07 01:02:41;;;;;;;;;;;14.70;99.90;;;;;;5031535;28;20020;-78
2022/05/07 01:05:20;;;;;;;;;;;14.70;99.90;;;;;;5035205;28;19913;-79
2022/05/07 01:07:46;;;;;;;;;;;14.70;99.90;;;;;;5028628;28;19973;-78
2022/05/07 01:10:14;;;;;;;;;;;14.60;99.90;;;;;;5039242;28;19967;-78
2022/05/07 01:13:11;;;;;;;;;;;14.60;99.90;;;;;;5042595;28;19937;-79
2022/05/07 01:16:04;;;;;;;;;;;14.50;99.90;;;;;;5036043;28;19913;-77
2022/05/07 01:18:30;;;;;;;;;;;14.50;99.90;;;;;;5037107;28;19924;-78
2022/05/07 01:21:29;;;;;;;;;;;14.40;99.90;;;;;;5033657;28;19913;-77
2022/05/07 01:23:55;;;;;;;;;;;14.40;99.90;;;;;;4995644;28;19917;-77
2022/05/07 01:26:22;;;;;;;;;;;14.30;99.90;;;;;;5036717;28;19980;-79
2022/05/07 01:28:48;;;;;;;;;;;14.30;99.90;;;;;;5031710;28;19929;-78
2022/05/07 01:31:14;;;;;;;;;;;14.30;99.90;;;;;;5041503;28;19956;-80
2022/05/07 01:33:40;;;;;;;;;;;14.30;99.90;;;;;;5029590;28;19916;-78
2022/05/07 01:36:16;;;;;;;;;;;14.30;99.90;;;;;;5028219;28;19917;-78
2022/05/07 01:38:42;;;;;;;;;;;14.40;99.90;;;;;;5030523;28;19913;-78
2022/05/07 01:41:07;;;;;;;;;;;14.40;99.90;;;;;;5021911;28;19920;-78
2022/05/07 01:43:33;;;;;;;;;;;14.30;99.90;;;;;;5027345;28;19913;-78
2022/05/07 01:45:59;;;;;;;;;;;14.40;99.90;;;;;;5022650;28;20388;-78
2022/05/07 01:48:25;;;;;;;;;;;14.40;99.90;;;;;;5021725;28;20351;-78
2022/05/07 01:50:51;;;;;;;;;;;14.40;99.90;;;;;;5015416;28;20253;-78
2022/05/07 01:53:16;;;;;;;;;;;14.40;99.90;;;;;;5023062;28;19944;-78
2022/05/07 01:55:46;;;;;;;;;;;14.40;99.90;;;;;;5019493;28;19914;-78
2022/05/07 01:58:12;;;;;;;;;;;14.40;99.90;;;;;;5013431;28;19917;-80
2022/05/07 02:00:41;;;;;;;;;;;14.40;99.90;;;;;;5020349;28;19917;-79
2022/05/07 02:03:07;;;;;;;;;;;14.50;99.90;;;;;;5009689;28;19913;-78
2022/05/07 02:05:33;;;;;;;;;;;14.40;99.90;;;;;;5022286;28;19913;-78
2022/05/07 02:07:58;;;;;;;;;;;14.40;99.90;;;;;;5017405;28;19917;-78
2022/05/07 02:10:25;;;;;;;;;;;14.40;99.90;;;;;;5031523;28;19980;-78
2022/05/07 02:12:51;;;;;;;;;;;14.40;99.90;;;;;;5012965;28;19977;-79
2022/05/07 02:15:17;;;;;;;;;;;14.30;99.90;;;;;;5016877;28;19918;-79
2022/05/07 02:17:43;;;;;;;;;;;14.30;99.90;;;;;;5025334;28;20000;-80
2022/05/07 02:20:09;;;;;;;;;;;14.30;99.90;;;;;;5012986;28;19914;-79
2022/05/07 02:22:35;;;;;;;;;;;14.30;99.90;;;;;;5022164;28;19924;-78
2022/05/07 02:25:00;;;;;;;;;;;14.20;99.90;;;;;;5014262;28;19913;-79
2022/05/07 02:27:26;;;;;;;;;;;14.20;99.90;;;;;;5015537;28;20366;-78
2022/05/07 02:29:52;;;;;;;;;;;14.20;99.90;;;;;;5014207;28;20108;-78
2022/05/07 02:32:18;;;;;;;;;;;14.20;99.90;;;;;;5021066;28;19913;-80
2022/05/07 02:34:44;;;;;;;;;;;14.20;99.90;;;;;;5026771;28;19909;-80
2022/05/07 02:37:10;;;;;;;;;;;14.20;99.90;;;;;;5021174;28;19975;-79
2022/05/07 02:39:35;;;;;;;;;;;14.20;99.90;;;;;;4997519;28;19913;-78
2022/05/07 02:44:46;;;;;;;;;;;14.30;99.90;;;;;;5025132;28;20224;-79
2022/05/07 02:47:11;;;;;;;;;;;14.30;99.90;;;;;;5030109;28;19909;-80
2022/05/07 02:49:37;;;;;;;;;;;14.40;99.90;;;;;;5022968;28;19979;-79
2022/05/07 02:52:03;;;;;;;;;;;14.40;99.90;;;;;;5016509;28;19956;-78
2022/05/07 02:54:29;;;;;;;;;;;14.30;99.90;;;;;;5013968;28;19913;-78
2022/05/07 02:56:55;;;;;;;;;;;14.30;99.90;;;;;;5009431;28;19968;-78
2022/05/07 02:59:21;;;;;;;;;;;14.30;99.90;;;;;;5002147;28;20012;-80
2022/05/07 03:01:47;;;;;;;;;;;14.30;99.90;;;;;;5016218;28;19920;-81
2022/05/07 03:04:13;;;;;;;;;;;14.30;99.90;;;;;;5018043;28;19913;-78
2022/05/07 03:06:41;;;;;;;;;;;14.40;99.90;;;;;;5020955;28;19944;-78
2022/05/07 03:09:07;;;;;;;;;;;14.50;99.90;;;;;;5014052;28;19952;-78
2022/05/07 03:11:34;;;;;;;;;;;14.50;99.90;;;;;;5011013;28;19917;-78
2022/05/07 03:14:00;;;;;;;;;;;14.50;99.90;;;;;;5013941;28;19918;-78
2022/05/07 03:16:26;;;;;;;;;;;14.50;99.90;;;;;;5010770;28;19917;-79
2022/05/07 03:18:52;;;;;;;;;;;14.50;99.90;;;;;;5016847;28;19924;-80
2022/05/07 03:21:20;;;;;;;;;;;14.50;99.90;;;;;;5027104;28;19909;-78
2022/05/07 03:23:46;;;;;;;;;;;14.50;99.90;;;;;;5034639;28;20222;-78
2022/05/07 03:26:12;;;;;;;;;;;14.40;99.90;;;;;;5016144;28;19909;-78
2022/05/07 03:28:38;;;;;;;;;;;14.40;99.90;;;;;;5034163;28;19920;-78
2022/05/07 03:31:04;;;;;;;;;;;14.40;99.90;;;;;;5013381;28;19918;-79
2022/05/07 03:33:30;;;;;;;;;;;14.40;99.90;;;;;;5018112;28;19917;-78
2022/05/07 03:35:56;;;;;;;;;;;14.40;99.90;;;;;;5017437;28;19919;-79
2022/05/07 03:38:22;;;;;;;;;;;14.50;99.90;;;;;;5009181;28;19910;-79
2022/05/07 03:40:48;;;;;;;;;;;14.60;99.90;;;;;;5013793;28;20395;-79
2022/05/07 03:43:14;;;;;;;;;;;14.70;99.90;;;;;;4996697;28;20315;-78
2022/05/07 03:45:39;;;;;;;;;;;14.70;99.90;;;;;;5023341;28;19920;-79
2022/05/07 03:48:32;;;;;;;;;;;14.60;99.90;;;;;;5006330;28;19914;-79
2022/05/07 03:50:57;;;;;;;;;;;14.60;99.90;;;;;;4995949;28;20043;-79
2022/05/07 03:53:30;;;;;;;;;;;14.60;99.90;;;;;;5028305;28;19949;-79
2022/05/07 03:56:16;;;;;;;;;;;14.60;99.90;;;;;;5017969;28;19913;-78
2022/05/07 03:58:41;;;;;;;;;;;14.70;99.90;;;;;;4999636;28;19960;-80
2022/05/07 04:01:08;;;;;;;;;;;14.70;99.90;;;;;;5019937;28;20323;-80
2022/05/07 04:03:34;;;;;;;;;;;14.70;99.90;;;;;;5004430;28;20096;-78
2022/05/07 04:06:00;;;;;;;;;;;14.70;99.90;;;;;;5002531;28;20358;-79
2022/05/07 04:08:28;;;;;;;;;;;14.80;99.90;;;;;;5017288;28;20375;-79
2022/05/07 04:10:54;;;;;;;;;;;14.80;99.90;;;;;;5018337;28;20283;-78
2022/05/07 04:13:20;;;;;;;;;;;14.80;99.90;;;;;;5020575;28;19928;-78
2022/05/07 04:15:46;;;;;;;;;;;14.90;99.90;;;;;;5030361;28;19914;-79
2022/05/07 04:18:12;;;;;;;;;;;14.90;99.90;;;;;;5021362;28;19914;-79
2022/05/07 04:20:38;;;;;;;;;;;15.00;99.90;;;;;;5023085;28;19909;-81
2022/05/07 04:23:07;;;;;;;;;;;15.00;99.90;;;;;;4998147;28;20380;-79
2022/05/07 04:25:33;;;;;;;;;;;15.00;99.90;;;;;;5013824;28;19921;-78
2022/05/07 04:28:01;;;;;;;;;;;15.00;99.90;;;;;;5017652;28;19968;-80
2022/05/07 04:30:30;;;;;;;;;;;14.90;99.90;;;;;;4997940;28;19924;-78
2022/05/07 04:32:56;;;;;;;;;;;14.80;99.90;;;;;;5022798;28;19974;-80
2022/05/07 04:35:23;;;;;;;;;;;14.90;99.90;;;;;;4999881;28;19945;-79
2022/05/07 04:37:49;;;;;;;;;;;15.00;99.90;;;;;;5016347;28;20251;-79
2022/05/07 04:40:15;;;;;;;;;;;14.90;99.90;;;;;;5017465;28;19914;-80
2022/05/07 04:42:41;;;;;;;;;;;14.90;99.90;;;;;;5007239;28;19914;-78
2022/05/07 04:45:10;;;;;;;;;;;14.90;99.90;;;;;;5023720;28;20008;-79
2022/05/07 04:47:39;;;;;;;;;;;14.90;99.90;;;;;;5020131;28;19961;-78
2022/05/07 04:50:05;;;;;;;;;;;14.90;99.90;;;;;;5010006;28;20162;-78
2022/05/07 04:52:31;;;;;;;;;;;15.00;99.90;;;;;;5012695;28;19952;-79
2022/05/07 04:54:57;;;;;;;;;;;15.10;99.90;;;;;;5021121;28;20367;-79
2022/05/07 04:57:23;;;;;;;;;;;15.20;99.90;;;;;;5019826;28;19920;-78
2022/05/07 04:59:49;;;;;;;;;;;15.20;99.90;;;;;;5026482;28;19921;-78
2022/05/07 05:02:14;;;;;;;;;;;15.30;99.90;;;;;;5024185;28;20000;-78
2022/05/07 05:04:40;;;;;;;;;;;15.30;99.90;;;;;;5016603;28;19914;-78
2022/05/07 05:07:12;;;;;;;;;;;15.40;99.90;;;;;;5020493;28;19909;-79
2022/05/07 05:09:38;;;;;;;;;;;15.60;99.90;;;;;;5003855;28;19972;-80
2022/05/07 05:12:03;;;;;;;;;;;15.60;99.90;;;;;;5026413;28;20020;-79
2022/05/07 05:17:13;;;;;;;;;;;15.60;99.90;;;;;;5014855;28;19952;-81
2022/05/07 05:19:39;;;;;;;;;;;15.60;99.90;;;;;;5020036;28;19914;-78
2022/05/07 05:22:05;;;;;;;;;;;15.50;99.90;;;;;;5022123;28;19910;-78
2022/05/07 05:24:31;;;;;;;;;;;15.50;99.90;;;;;;5016171;28;20046;-78
2022/05/07 05:26:57;;;;;;;;;;;15.60;99.90;;;;;;5027921;28;20303;-79
2022/05/07 05:29:23;;;;;;;;;;;15.70;99.90;;;;;;5027695;28;19924;-78
2022/05/07 05:31:49;;;;;;;;;;;15.70;99.90;;;;;;5020739;28;19945;-79
2022/05/07 05:34:15;;;;;;;;;;;15.70;99.90;;;;;;5015551;28;20326;-78
2022/05/07 05:36:41;;;;;;;;;;;15.70;99.90;;;;;;4998514;28;19961;-78
2022/05/07 05:39:07;;;;;;;;;;;15.70;99.90;;;;;;5016174;28;20316;-78
2022/05/07 05:41:33;;;;;;;;;;;15.70;99.90;;;;;;5018776;28;19963;-79
2022/05/07 05:43:59;;;;;;;;;;;15.80;99.90;;;;;;5019735;28;20371;-78
2022/05/07 05:46:25;;;;;;;;;;;15.80;99.90;;;;;;5013957;28;19921;-78
2022/05/07 05:48:51;;;;;;;;;;;15.90;99.90;;;;;;5018760;28;20008;-78
2022/05/07 05:51:16;;;;;;;;;;;16.00;99.90;;;;;;5024801;28;19964;-78
2022/05/07 05:53:48;;;;;;;;;;;16.10;99.90;;;;;;5025784;28;20330;-78
2022/05/07 05:56:17;;;;;;;;;;;16.10;99.90;;;;;;5021850;28;20421;-78
2022/05/07 05:58:44;;;;;;;;;;;16.30;99.90;;;;;;5007072;28;19920;-81
2022/05/07 06:01:11;;;;;;;;;;;16.40;99.90;;;;;;5023113;28;19914;-77
2022/05/07 06:03:37;;;;;;;;;;;16.40;99.90;;;;;;5012856;28;19913;-79
2022/05/07 06:06:06;;;;;;;;;;;16.40;99.90;;;;;;5024074;28;19913;-82
2022/05/07 06:08:32;;;;;;;;;;;16.50;99.90;;;;;;5014441;28;19917;-79
2022/05/07 06:10:57;;;;;;;;;;;16.60;99.90;;;;;;5021365;28;20347;-79
2022/05/07 06:13:24;;;;;;;;;;;16.50;99.90;;;;;;5002274;28;19914;-79
2022/05/07 06:16:02;;;;;;;;;;;16.60;99.90;;;;;;5023862;28;19909;-78
2022/05/07 06:18:29;;;;;;;;;;;16.60;99.90;;;;;;5013014;28;19924;-79
2022/05/07 06:20:55;;;;;;;;;;;16.70;99.90;;;;;;4999536;28;19959;-79
2022/05/07 06:23:20;;;;;;;;;;;16.70;99.90;;;;;;5017716;28;19922;-78
2022/05/07 06:28:30;;;;;;;;;;;16.80;99.90;;;;;;5015919;28;19921;-78
2022/05/07 06:30:56;;;;;;;;;;;16.80;99.90;;;;;;5015528;28;20363;-79
2022/05/07 06:33:22;;;;;;;;;;;16.70;99.90;;;;;;5015622;28;19916;-80
2022/05/07 06:35:48;;;;;;;;;;;16.70;99.90;;;;;;5012401;28;19913;-78
2022/05/07 06:38:13;;;;;;;;;;;16.70;99.90;;;;;;5020409;28;19914;-78
2022/05/07 06:40:39;;;;;;;;;;;16.80;99.90;;;;;;5000352;28;20003;-78
2022/05/07 06:43:05;;;;;;;;;;;16.80;99.90;;;;;;5022812;28;19917;-78
2022/05/07 06:45:31;;;;;;;;;;;17.10;99.90;;;;;;5020920;28;19917;-78
2022/05/07 06:47:57;;;;;;;;;;;17.00;99.90;;;;;;5017687;28;20367;-79
2022/05/07 06:50:23;;;;;;;;;;;17.00;99.90;;;;;;5004222;28;19917;-80
2022/05/07 06:52:49;;;;;;;;;;;16.90;99.90;;;;;;5019039;28;19924;-80
2022/05/07 06:55:16;;;;;;;;;;;17.00;99.90;;;;;;5002120;28;20419;-79
2022/05/07 06:57:42;;;;;;;;;;;17.00;99.90;;;;;;5031362;28;19913;-78
2022/05/07 07:00:09;;;;;;;;;;;17.00;99.90;;;;;;5022270;28;19939;-79
2022/05/07 07:02:35;;;;;;;;;;;17.20;99.90;;;;;;5029752;28;19913;-81
2022/05/07 07:05:02;;;;;;;;;;;17.20;99.90;;;;;;5023227;28;19918;-80
2022/05/07 07:07:28;;;;;;;;;;;17.30;99.90;;;;;;5016908;28;19925;-78
2022/05/07 07:09:53;;;;;;;;;;;17.30;99.90;;;;;;5019876;28;19913;-79
2022/05/07 07:12:22;;;;;;;;;;;17.40;99.90;;;;;;5021416;28;20380;-79
2022/05/07 07:14:48;;;;;;;;;;;17.60;99.90;;;;;;5024608;28;20457;-78
2022/05/07 07:17:16;;;;;;;;;;;17.50;99.90;;;;;;5022444;28;19909;-80
2022/05/07 07:19:42;;;;;;;;;;;17.50;99.90;;;;;;5014046;28;19913;-79
2022/05/07 07:22:07;;;;;;;;;;;17.60;99.90;;;;;;5014220;28;19909;-79
2022/05/07 07:24:33;;;;;;;;;;;17.60;99.90;;;;;;5000464;28;20326;-79
2022/05/07 07:26:59;;;;;;;;;;;17.70;99.90;;;;;;5017740;28;19917;-79
2022/05/07 07:29:27;;;;;;;;;;;17.80;99.90;;;;;;5000758;28;19939;-80
2022/05/07 07:31:53;;;;;;;;;;;17.70;99.90;;;;;;5017953;28;20382;-78
2022/05/07 07:34:21;;;;;;;;;;;17.80;99.90;;;;;;5019520;28;20001;-79
2022/05/07 07:36:46;;;;;;;;;;;17.80;99.90;;;;;;5016341;28;20376;-77
2022/05/07 07:39:12;;;;;;;;;;;17.90;99.90;;;;;;5007723;28;19914;-79
2022/05/07 07:41:38;;;;;;;;;;;17.90;99.90;;;;;;5021667;28;19973;-79
2022/05/07 07:44:08;;;;;;;;;;;18.00;99.90;;;;;;4997834;28;19914;-78
2022/05/07 07:49:18;;;;;;;;;;;18.10;99.90;;;;;;5016846;28;19936;-80
2022/05/07 07:51:44;;;;;;;;;;;18.10;99.90;;;;;;5016642;28;19964;-79
2022/05/07 07:54:10;;;;;;;;;;;18.20;99.90;;;;;;5014153;28;20653;-77
2022/05/07 07:56:36;;;;;;;;;;;18.30;99.90;;;;;;5016494;28;20006;-79
2022/05/07 07:59:01;;;;;;;;;;;18.40;99.90;;;;;;5018868;28;20043;-79
2022/05/07 08:01:27;;;;;;;;;;;18.40;99.90;;;;;;5025908;28;20420;-79
2022/05/07 08:03:53;;;;;;;;;;;18.50;99.90;;;;;;5020517;28;19952;-78
2022/05/07 08:06:19;;;;;;;;;;;18.60;99.90;;;;;;4994287;28;19914;-81
2022/05/07 08:11:41;;;;;;;;;;;18.60;99.90;;;;;;5011400;28;19972;-80
2022/05/07 08:14:10;;;;;;;;;;;18.80;99.90;;;;;;5019372;28;19917;-79
2022/05/07 08:16:36;;;;;;;;;;;18.90;99.90;;;;;;5026323;28;20310;-80
2022/05/07 08:19:03;;;;;;;;;;;19.10;99.90;;;;;;5023996;28;19917;-79
2022/05/07 08:21:29;;;;;;;;;;;19.10;99.90;;;;;;5027871;28;19914;-79
2022/05/07 08:23:55;;;;;;;;;;;19.10;99.90;;;;;;5004935;28;19920;-78
2022/05/07 08:26:21;;;;;;;;;;;19.20;99.90;;;;;;5010553;28;20522;-79
2022/05/07 08:28:47;;;;;;;;;;;19.20;99.90;;;;;;5018646;28;19917;-78
2022/05/07 08:31:14;;;;;;;;;;;19.30;99.90;;;;;;5019175;28;19917;-78
2022/05/07 08:33:43;;;;;;;;;;;19.30;99.90;;;;;;5018802;28;19949;-79
2022/05/07 08:36:10;;;;;;;;;;;19.40;99.90;;;;;;5027182;28;19913;-78
2022/05/07 08:38:36;;;;;;;;;;;19.50;99.90;;;;;;5036040;28;19985;-82
2022/05/07 08:41:02;;;;;;;;;;;19.60;99.90;;;;;;5032141;28;19921;-80
2022/05/07 08:43:31;;;;;;;;;;;19.70;99.90;;;;;;5028536;28;19922;-79
2022/05/07 08:45:57;;;;;;;;;;;19.70;99.90;;;;;;5016947;28;20326;-70
2022/05/07 08:48:23;;;;;;;;;;;19.80;99.90;;;;;;5021410;28;19920;-71
2022/05/07 08:50:51;;;;;;;;;;;19.70;99.90;;;;;;5001420;28;19917;-71
2022/05/07 08:53:16;;;;;;;;;;;19.90;99.90;;;;;;5027630;28;19981;-71
2022/05/07 08:55:42;;;;;;;;;;;19.90;99.90;;;;;;5024055;28;19961;-70
2022/05/07 08:58:08;;;;;;;;;;;19.90;99.90;;;;;;5010688;28;20055;-71
2022/05/07 09:00:34;;;;;;;;;;;19.90;99.90;;;;;;5022426;28;20072;-71
2022/05/07 09:03:01;;;;;;;;;;;19.70;99.90;;;;;;5021340;28;19918;-70
2022/05/07 09:05:32;;;;;;;;;;;19.60;99.90;;;;;;5010920;28;20362;-70
2022/05/07 09:07:58;;;;;;;;;;;19.70;99.90;;;;;;5012278;28;19918;-71
2022/05/07 09:10:26;;;;;;;;;;;19.90;99.90;;;;;;5013131;28;20362;-70
2022/05/07 09:12:52;;;;;;;;;;;20.00;99.90;;;;;;5021447;28;19953;-70
2022/05/07 09:15:17;;;;;;;;;;;20.20;99.90;;;;;;5020217;28;19921;-70
2022/05/07 09:17:46;;;;;;;;;;;20.20;99.90;;;;;;5023507;28;20047;-70
2022/05/07 09:20:12;;;;;;;;;;;20.00;99.90;;;;;;5022319;28;19913;-70
2022/05/07 09:22:55;;;;;;;;;;;20.00;99.90;;;;;;4997557;28;19913;-70
2022/05/07 09:25:21;;;;;;;;;;;19.60;99.90;;;;;;5013946;28;20390;-70
2022/05/07 09:27:47;;;;;;;;;;;19.50;99.90;;;;;;5013350;28;20723;-70
2022/05/07 09:30:13;;;;;;;;;;;19.30;99.90;;;;;;4995664;28;19917;-70
2022/05/07 09:32:38;;;;;;;;;;;19.30;99.90;;;;;;5013795;28;20330;-70
2022/05/07 09:38:01;;;;;;;;;;;20.00;99.90;;;;;;5011189;28;19923;-70
2022/05/07 09:40:27;;;;;;;;;;;20.50;99.90;;;;;;5022009;28;19967;-70
2022/05/07 09:42:57;;;;;;;;;;;20.50;99.90;;;;;;5019822;28;19913;-70
2022/05/07 09:45:27;;;;;;;;;;;20.80;99.90;;;;;;5014448;28;19918;-70
2022/05/07 09:47:55;;;;;;;;;;;21.10;99.90;;;;;;5000956;28;19921;-71
2022/05/07 09:50:24;;;;;;;;;;;21.50;99.90;;;;;;5011447;28;19953;-70
2022/05/07 09:58:20;;;;;;;;;;;21.70;99.90;;;;;;5022629;28;20007;-71
2022/05/07 10:00:49;;;;;;;;;;;22.10;99.90;;;;;;5019073;28;20433;-71
2022/05/07 10:03:22;;;;;;;;;;;22.10;99.90;;;;;;5013091;28;20397;-71
2022/05/07 10:06:13;;;;;;;;;;;22.40;99.90;;;;;;5005615;28;19910;-71
2022/05/07 10:08:44;;;;;;;;;;;22.70;99.90;;;;;;4978352;28;19917;-71
2022/05/07 10:11:12;;;;;;;;;;;22.90;99.90;;;;;;4995347;28;19937;-71
2022/05/07 10:13:38;;;;;;;;;;;23.20;99.90;;;;;;4995452;28;19977;-71
2022/05/07 10:16:04;;;;;;;;;;;23.20;99.90;;;;;;4995731;28;19937;-71
2022/05/07 10:18:35;;;;;;;;;;;23.00;99.90;;;;;;5004510;28;19917;-71
2022/05/07 10:21:10;;;;;;;;;;;23.00;99.90;;;;;;4995249;28;20158;-71
2022/05/07 10:23:38;;;;;;;;;;;22.80;99.90;;;;;;4995234;28;19910;-70
2022/05/07 10:26:04;;;;;;;;;;;22.70;99.90;;;;;;4995243;28;19910;-71
2022/05/07 10:28:38;;;;;;;;;;;22.70;99.90;;;;;;4984497;28;19937;-70
2022/05/07 10:31:03;;;;;;;;;;;22.70;99.90;;;;;;4995361;28;19914;-70
2022/05/07 10:33:38;;;;;;;;;;;22.60;99.90;;;;;;4995129;28;19914;-70
2022/05/07 10:36:08;;;;;;;;;;;22.40;99.90;;;;;;4994476;28;20370;-70
2022/05/07 10:38:35;;;;;;;;;;;22.30;99.90;;;;;;5003626;28;19913;-70
2022/05/07 10:41:18;;;;;;;;;;;22.30;99.90;;;;;;5019532;28;19918;-70
2022/05/07 10:43:56;;;;;;;;;;;22.30;99.90;;;;;;5032191;28;20411;-70
2022/05/07 10:46:22;;;;;;;;;;;22.30;99.90;;;;;;5019986;28;19914;-69
2022/05/07 10:48:51;;;;;;;;;;;22.20;99.90;;;;;;5013065;28;20079;-70
2022/05/07 10:51:29;;;;;;;;;;;22.20;99.90;;;;;;5013521;28;20294;-69
2022/05/07 10:54:00;;;;;;;;;;;22.20;99.90;;;;;;5011781;28;20343;-69
2022/05/07 10:56:27;;;;;;;;;;;22.20;99.90;;;;;;5010694;28;19953;-69
2022/05/07 10:58:54;;;;;;;;;;;22.10;99.90;;;;;;5013072;28;19909;-69
2022/05/07 11:01:20;;;;;;;;;;;22.00;99.90;;;;;;5010010;28;19914;-69
2022/05/07 11:03:47;;;;;;;;;;;22.00;99.90;;;;;;5011492;28;19910;-69
2022/05/07 11:06:13;;;;;;;;;;;21.70;99.90;;;;;;5017591;28;19920;-69
2022/05/07 11:08:45;;;;;;;;;;;21.70;99.90;;;;;;5023434;28;20066;-69
2022/05/07 11:11:11;;;;;;;;;;;21.70;99.90;;;;;;5017559;28;19918;-70
2022/05/07 11:13:44;;;;;;;;;;;21.70;99.90;;;;;;5010856;28;20402;-69
2022/05/07 11:16:10;;;;;;;;;;;21.70;99.90;;;;;;5013762;28;19936;-69
2022/05/07 11:18:36;;;;;;;;;;;21.40;99.90;;;;;;5020189;28;20363;-69
2022/05/07 11:21:03;;;;;;;;;;;21.20;99.90;;;;;;5011113;28;19917;-69
2022/05/07 11:23:31;;;;;;;;;;;21.00;99.90;;;;;;5008185;28;19914;-69
2022/05/07 11:25:56;;;;;;;;;;;20.90;99.90;;;;;;5011034;28;19910;-69
2022/05/07 11:28:22;;;;;;;;;;;20.50;99.90;;;;;;5017959;28;20302;-69
2022/05/07 11:30:55;;;;;;;;;;;20.30;99.90;;;;;;5021481;28;20293;-68
2022/05/07 11:33:24;;;;;;;;;;;20.20;99.90;;;;;;5022454;28;19968;-69
2022/05/07 11:36:00;;;;;;;;;;;20.20;99.90;;;;;;5012538;28;19914;-69
2022/05/07 11:38:25;;;;;;;;;;;20.10;99.90;;;;;;5016564;28;19917;-69
2022/05/07 11:40:52;;;;;;;;;;;20.10;99.90;;;;;;5018220;28;19975;-68
2022/05/07 11:46:06;;;;;;;;;;;20.00;99.90;;;;;;5018218;28;20417;-69
2022/05/07 11:48:31;;;;;;;;;;;19.50;99.90;;;;;;5023320;28;19914;-68
2022/05/07 11:50:59;;;;;;;;;;;19.40;99.90;;;;;;5006082;28;19926;-68
2022/05/07 11:53:28;;;;;;;;;;;19.10;99.90;;;;;;5014137;28;20350;-70
2022/05/07 11:56:04;;;;;;;;;;;18.90;99.90;;;;;;5019250;28;20027;-69
2022/05/07 11:58:37;;;;;;;;;;;18.80;99.90;;;;;;5008952;28;19920;-69
2022/05/07 12:01:03;;;;;;;;;;;18.60;99.90;;;;;;5012379;28;20421;-69
2022/05/07 12:03:29;;;;;;;;;;;18.40;99.90;;;;;;5024244;28;19917;-72
2022/05/07 12:05:55;;;;;;;;;;;18.30;99.90;;;;;;5016089;28;20394;-69
2022/05/07 12:08:21;;;;;;;;;;;18.20;99.90;;;;;;5015608;28;19925;-70
2022/05/07 12:10:49;;;;;;;;;;;18.00;99.90;;;;;;5014157;28;20355;-69
2022/05/07 12:13:15;;;;;;;;;;;18.00;99.90;;;;;;5024414;28;19917;-70
2022/05/07 12:18:25;;;;;;;;;;;18.00;99.90;;;;;;5018978;28;20389;-69
2022/05/07 12:20:51;;;;;;;;;;;18.00;99.90;;;;;;5018065;28;19913;-70
2022/05/07 12:31:29;;;;;;;;;;;17.80;99.90;;;;;;5020819;28;19983;-70
2022/05/07 12:33:55;;;;;;;;;;;17.80;99.90;;;;;;5020193;28;19913;-70
2022/05/07 12:36:21;;;;;;;;;;;17.80;99.90;;;;;;5024492;28;20338;-70
2022/05/07 12:38:47;;;;;;;;;;;17.70;99.90;;;;;;5017285;28;19967;-70
2022/05/07 12:41:13;;;;;;;;;;;17.70;99.90;;;;;;5015395;28;19913;-70
2022/05/07 12:43:38;;;;;;;;;;;17.60;99.90;;;;;;5016062;28;19913;-70
2022/05/07 12:46:04;;;;;;;;;;;17.50;99.90;;;;;;5014710;28;19914;-71
2022/05/07 12:48:30;;;;;;;;;;;17.40;99.90;;;;;;5015761;28;19968;-70
2022/05/07 12:50:55;;;;;;;;;;;17.30;99.90;;;;;;5014786;28;19924;-71
2022/05/07 12:53:21;;;;;;;;;;;17.30;99.90;;;;;;5015474;28;20353;-70
2022/05/07 12:55:47;;;;;;;;;;;17.30;99.90;;;;;;5029352;28;19928;-71
2022/05/07 12:58:13;;;;;;;;;;;17.10;99.90;;;;;;5020674;28;20067;-70
2022/05/07 13:00:39;;;;;;;;;;;17.10;99.90;;;;;;5032522;28;19909;-70
2022/05/07 13:03:05;;;;;;;;;;;17.20;99.90;;;;;;5034600;28;19953;-70
2022/05/07 13:05:33;;;;;;;;;;;17.30;99.90;;;;;;5002493;28;20453;-70
2022/05/07 13:08:00;;;;;;;;;;;17.30;99.90;;;;;;5000174;28;19921;-70
2022/05/07 13:10:26;;;;;;;;;;;17.40;99.90;;;;;;5002185;28;19917;-70
2022/05/07 13:12:52;;;;;;;;;;;17.50;99.90;;;;;;5015472;28;19914;-70
2022/05/07 13:15:18;;;;;;;;;;;17.60;99.90;;;;;;5016007;28;19956;-70
2022/05/07 13:17:44;;;;;;;;;;;17.70;99.90;;;;;;5010032;28;19940;-70
2022/05/07 13:20:10;;;;;;;;;;;17.80;99.90;;;;;;5014905;28;19914;-70
2022/05/07 13:22:35;;;;;;;;;;;18.00;99.90;;;;;;5015492;28;19910;-69
2022/05/07 13:25:01;;;;;;;;;;;18.10;99.90;;;;;;5021658;28;19964;-69
2022/05/07 13:27:27;;;;;;;;;;;18.30;99.90;;;;;;5019385;28;19914;-69
2022/05/07 13:29:53;;;;;;;;;;;18.50;99.90;;;;;;5010903;28;19957;-70
2022/05/07 13:32:18;;;;;;;;;;;18.60;99.90;;;;;;5013950;28;19987;-69
2022/05/07 13:34:44;;;;;;;;;;;18.70;99.90;;;;;;5012698;28;19925;-69
2022/05/07 13:37:11;;;;;;;;;;;18.90;99.90;;;;;;5014600;28;19948;-69
2022/05/07 13:39:37;;;;;;;;;;;18.90;99.90;;;;;;5012540;28;21314;-69
2022/05/07 13:42:03;;;;;;;;;;;18.90;99.90;;;;;;5014696;28;19909;-68
2022/05/07 13:44:29;;;;;;;;;;;18.90;99.90;;;;;;5022453;28;19961;-69
2022/05/07 13:46:54;;;;;;;;;;;19.00;99.90;;;;;;5011073;28;19917;-70
2022/05/07 13:49:20;;;;;;;;;;;19.00;99.90;;;;;;5017556;28;20386;-70
2022/05/07 13:51:46;;;;;;;;;;;19.00;99.90;;;;;;5016720;28;20383;-70
2022/05/07 13:54:12;;;;;;;;;;;19.00;99.90;;;;;;5004060;28;19914;-70
2022/05/07 13:56:37;;;;;;;;;;;19.00;99.90;;;;;;5008607;28;19914;-69
2022/05/07 13:59:03;;;;;;;;;;;19.00;99.90;;;;;;5010128;28;19914;-69
2022/05/07 14:01:29;;;;;;;;;;;19.00;99.90;;;;;;5000984;28;20379;-71
2022/05/07 14:03:55;;;;;;;;;;;19.10;99.90;;;;;;5012182;28;19913;-69
2022/05/07 14:06:22;;;;;;;;;;;19.10;99.90;;;;;;5014561;28;20375;-69
2022/05/07 14:08:48;;;;;;;;;;;19.20;99.90;;;;;;5012879;28;20012;-69
2022/05/07 14:11:17;;;;;;;;;;;19.30;99.90;;;;;;5000747;28;19917;-70
2022/05/07 14:13:42;;;;;;;;;;;19.40;99.90;;;;;;5025667;28;19955;-70
2022/05/07 14:16:08;;;;;;;;;;;19.60;99.90;;;;;;5022254;28;19921;-69
2022/05/07 14:18:34;;;;;;;;;;;19.60;99.90;;;;;;5009083;28;19917;-69
2022/05/07 14:21:00;;;;;;;;;;;19.80;99.90;;;;;;4995892;28;19959;-69
2022/05/07 14:23:26;;;;;;;;;;;19.90;99.90;;;;;;5011528;28;20437;-69
2022/05/07 14:25:51;;;;;;;;;;;20.10;99.90;;;;;;5016048;28;20012;-70
2022/05/07 14:28:17;;;;;;;;;;;20.30;99.90;;;;;;5005162;28;20390;-70
2022/05/07 14:30:43;;;;;;;;;;;20.50;99.90;;;;;;5011936;28;19929;-70
2022/05/07 14:33:09;;;;;;;;;;;20.60;99.90;;;;;;5017024;28;19920;-69
2022/05/07 14:35:35;;;;;;;;;;;20.70;99.90;;;;;;5015700;28;19914;-69
2022/05/07 14:38:00;;;;;;;;;;;20.80;99.90;;;;;;5022704;28;20040;-69
2022/05/07 14:40:31;;;;;;;;;;;20.70;99.90;;;;;;5019734;28;19945;-69
2022/05/07 14:43:03;;;;;;;;;;;20.60;99.90;;;;;;5002281;28;20020;-69
2022/05/07 14:45:29;;;;;;;;;;;20.30;99.90;;;;;;5006197;28;19920;-69
2022/05/07 14:47:55;;;;;;;;;;;20.30;99.90;;;;;;5011963;28;20397;-69
2022/05/07 14:50:22;;;;;;;;;;;20.10;99.90;;;;;;5013637;28;20008;-69
2022/05/07 14:52:48;;;;;;;;;;;19.80;99.90;;;;;;5012399;28;19921;-69
2022/05/07 14:55:14;;;;;;;;;;;19.80;99.90;;;;;;5017464;28;19922;-75
2022/05/07 14:57:40;;;;;;;;;;;19.80;99.90;;;;;;5015579;28;19945;-70
2022/05/07 15:00:06;;;;;;;;;;;19.80;99.90;;;;;;5015055;28;19914;-70
2022/05/07 15:02:32;;;;;;;;;;;19.90;99.90;;;;;;5015723;28;19913;-70
2022/05/07 15:04:57;;;;;;;;;;;20.10;99.90;;;;;;5015894;28;19913;-70